sensor_id;sensor_type;location;lat;lon;timestamp;temperature;humidity
57390;DHT22;43217;52.694;6.214;2023-02-15T00:02:16;2.20;99.90
57390;DHT22;43217;52.694;6.214;2023-02-15T00:04:42;2.20;99.90
57390;DHT22;43217;52.694;6.214;2023-02-15T00:07:18;2.20;99.90
57390;DHT22;43217;52.694;6.214;2023-02-15T00:09:45;2.20;99.90
57390;DHT22;43217;52.694;6.214;2023-02-15T00:12:11;2.20;99.90
57390;DHT22;43217;52.694;6.214;2023-02-15T00:14:36;2.10;99.90
57390;DHT22;43217;52.694;6.214;2023-02-15T00:17:02;2.10;99.90
57390;DHT22;43217;52.694;6.214;2023-02-15T00:19:28;2.10;99.90
57390;DHT22;43217;52.694;6.214;2023-02-15T00:21:54;2.10;99.90
57390;DHT22;43217;52.694;6.214;2023-02-15T00:24:20;2.10;99.90
57390;DHT22;43217;52.694;6.214;2023-02-15T00:26:47;2.00;99.90
57390;DHT22;43217;52.694;6.214;2023-02-15T00:29:15;2.10;99.90
57390;DHT22;43217;52.694;6.214;2023-02-15T00:31:41;2.00;99.90
57390;DHT22;43217;52.694;6.214;2023-02-15T00:34:15;2.00;99.90
57390;DHT22;43217;52.694;6.214;2023-02-15T00:36:41;2.00;99.90
57390;DHT22;43217;52.694;6.214;2023-02-15T00:39:07;2.00;99.90
57390;DHT22;43217;52.694;6.214;2023-02-15T00:41:33;1.90;99.90
57390;DHT22;43217;52.694;6.214;2023-02-15T00:43:59;1.90;99.90
57390;DHT22;43217;52.694;6.214;2023-02-15T00:46:25;1.90;99.90
57390;DHT22;43217;52.694;6.214;2023-02-15T00:48:50;1.90;99.90
57390;DHT22;43217;52.694;6.214;2023-02-15T00:51:16;1.90;99.90
57390;DHT22;43217;52.694;6.214;2023-02-15T00:53:43;1.90;99.90
57390;DHT22;43217;52.694;6.214;2023-02-15T00:56:10;1.80;99.90
57390;DHT22;43217;52.694;6.214;2023-02-15T00:58:35;1.80;99.90
57390;DHT22;43217;52.694;6.214;2023-02-15T01:01:07;1.80;99.90
57390;DHT22;43217;52.694;6.214;2023-02-15T01:03:34;1.80;99.90
57390;DHT22;43217;52.694;6.214;2023-02-15T01:06:00;1.80;99.90
57390;DHT22;43217;52.694;6.214;2023-02-15T01:08:26;1.80;99.90
57390;DHT22;43217;52.694;6.214;2023-02-15T01:10:52;1.80;99.90
57390;DHT22;43217;52.694;6.214;2023-02-15T01:13:18;1.80;99.90
57390;DHT22;43217;52.694;6.214;2023-02-15T01:15:44;1.70;99.90
57390;DHT22;43217;52.694;6.214;2023-02-15T01:18:11;1.70;99.90
57390;DHT22;43217;52.694;6.214;2023-02-15T01:20:39;1.70;99.90
57390;DHT22;43217;52.694;6.214;2023-02-15T01:23:07;1.60;99.90
57390;DHT22;43217;52.694;6.214;2023-02-15T01:25:34;1.60;99.90
57390;DHT22;43217;52.694;6.214;2023-02-15T01:28:00;1.50;99.90
57390;DHT22;43217;52.694;6.214;2023-02-15T01:30:25;1.50;99.90
57390;DHT22;43217;52.694;6.214;2023-02-15T01:32:52;1.40;99.90
57390;DHT22;43217;52.694;6.214;2023-02-15T01:35:17;1.40;99.90
57390;DHT22;43217;52.694;6.214;2023-02-15T01:37:43;1.30;99.90
57390;DHT22;43217;52.694;6.214;2023-02-15T01:40:13;1.30;99.90
57390;DHT22;43217;52.694;6.214;2023-02-15T01:42:39;1.30;99.90
57390;DHT22;43217;52.694;6.214;2023-02-15T01:45:18;1.40;99.90
57390;DHT22;43217;52.694;6.214;2023-02-15T01:47:44;1.40;99.90
57390;DHT22;43217;52.694;6.214;2023-02-15T01:50:37;1.30;99.90
57390;DHT22;43217;52.694;6.214;2023-02-15T01:55:45;1.30;99.90
57390;DHT22;43217;52.694;6.214;2023-02-15T01:58:12;1.30;99.90
57390;DHT22;43217;52.694;6.214;2023-02-15T02:00:39;1.30;99.90
57390;DHT22;43217;52.694;6.214;2023-02-15T02:03:05;1.30;99.90
57390;DHT22;43217;52.694;6.214;2023-02-15T02:05:31;1.30;99.90
57390;DHT22;43217;52.694;6.214;2023-02-15T02:08:00;1.30;99.90
57390;DHT22;43217;52.694;6.214;2023-02-15T02:10:26;1.30;99.90
57390;DHT22;43217;52.694;6.214;2023-02-15T02:12:58;1.30;99.90
57390;DHT22;43217;52.694;6.214;2023-02-15T02:15:40;1.30;99.90
57390;DHT22;43217;52.694;6.214;2023-02-15T02:18:31;1.20;99.90
57390;DHT22;43217;52.694;6.214;2023-02-15T02:21:36;1.20;99.90
57390;DHT22;43217;52.694;6.214;2023-02-15T02:27:12;1.20;99.90
57390;DHT22;43217;52.694;6.214;2023-02-15T02:30:09;1.20;99.90
57390;DHT22;43217;52.694;6.214;2023-02-15T02:32:54;1.20;99.90
57390;DHT22;43217;52.694;6.214;2023-02-15T02:38:31;1.20;99.90
57390;DHT22;43217;52.694;6.214;2023-02-15T02:41:29;1.10;99.90
57390;DHT22;43217;52.694;6.214;2023-02-15T02:49:37;1.10;99.90
57390;DHT22;43217;52.694;6.214;2023-02-15T02:52:50;1.10;99.90
57390;DHT22;43217;52.694;6.214;2023-02-15T02:54:51;1.10;99.90
57390;DHT22;43217;52.694;6.214;2023-02-15T02:57:16;1.10;99.90
57390;DHT22;43217;52.694;6.214;2023-02-15T02:59:45;1.10;99.90
57390;DHT22;43217;52.694;6.214;2023-02-15T03:02:17;1.10;99.90
57390;DHT22;43217;52.694;6.214;2023-02-15T03:04:53;1.10;99.90
57390;DHT22;43217;52.694;6.214;2023-02-15T03:07:24;1.10;99.90
57390;DHT22;43217;52.694;6.214;2023-02-15T03:09:53;1.10;99.90
57390;DHT22;43217;52.694;6.214;2023-02-15T03:12:23;1.10;99.90
57390;DHT22;43217;52.694;6.214;2023-02-15T03:15:14;1.10;99.90
57390;DHT22;43217;52.694;6.214;2023-02-15T03:17:43;1.10;99.90
57390;DHT22;43217;52.694;6.214;2023-02-15T03:20:31;1.00;99.90
57390;DHT22;43217;52.694;6.214;2023-02-15T03:23:02;1.00;99.90
57390;DHT22;43217;52.694;6.214;2023-02-15T03:25:41;1.00;99.90
57390;DHT22;43217;52.694;6.214;2023-02-15T03:28:15;1.00;99.90
57390;DHT22;43217;52.694;6.214;2023-02-15T03:30:45;1.00;99.90
57390;DHT22;43217;52.694;6.214;2023-02-15T03:33:13;1.00;99.90
57390;DHT22;43217;52.694;6.214;2023-02-15T03:35:52;1.00;99.90
57390;DHT22;43217;52.694;6.214;2023-02-15T03:38:23;1.00;99.90
57390;DHT22;43217;52.694;6.214;2023-02-15T03:40:52;1.10;99.90
57390;DHT22;43217;52.694;6.214;2023-02-15T03:43:59;1.10;99.90
57390;DHT22;43217;52.694;6.214;2023-02-15T03:46:33;1.10;99.90
57390;DHT22;43217;52.694;6.214;2023-02-15T03:49:05;1.10;99.90
57390;DHT22;43217;52.694;6.214;2023-02-15T03:51:36;1.00;99.90
57390;DHT22;43217;52.694;6.214;2023-02-15T03:54:10;1.00;99.90
57390;DHT22;43217;52.694;6.214;2023-02-15T03:56:40;1.00;99.90
57390;DHT22;43217;52.694;6.214;2023-02-15T03:59:07;1.00;99.90
57390;DHT22;43217;52.694;6.214;2023-02-15T04:07:00;0.90;99.90
57390;DHT22;43217;52.694;6.214;2023-02-15T04:09:26;0.80;99.90
57390;DHT22;43217;52.694;6.214;2023-02-15T04:12:10;0.80;99.90
57390;DHT22;43217;52.694;6.214;2023-02-15T04:14:36;0.80;99.90
57390;DHT22;43217;52.694;6.214;2023-02-15T04:17:20;0.80;99.90
57390;DHT22;43217;52.694;6.214;2023-02-15T04:19:45;0.70;99.90
57390;DHT22;43217;52.694;6.214;2023-02-15T04:22:38;0.70;99.90
57390;DHT22;43217;52.694;6.214;2023-02-15T04:25:22;0.70;99.90
57390;DHT22;43217;52.694;6.214;2023-02-15T04:27:53;0.70;99.90
57390;DHT22;43217;52.694;6.214;2023-02-15T04:30:23;0.70;99.90
57390;DHT22;43217;52.694;6.214;2023-02-15T04:32:49;0.70;99.90
57390;DHT22;43217;52.694;6.214;2023-02-15T04:35:15;0.80;99.90
57390;DHT22;43217;52.694;6.214;2023-02-15T04:37:42;0.80;99.90
57390;DHT22;43217;52.694;6.214;2023-02-15T04:40:10;0.80;99.90
57390;DHT22;43217;52.694;6.214;2023-02-15T04:42:36;0.80;99.90
57390;DHT22;43217;52.694;6.214;2023-02-15T04:45:02;0.80;99.90
57390;DHT22;43217;52.694;6.214;2023-02-15T04:47:27;0.70;99.90
57390;DHT22;43217;52.694;6.214;2023-02-15T04:49:53;0.70;99.90
57390;DHT22;43217;52.694;6.214;2023-02-15T04:52:18;0.80;99.90
57390;DHT22;43217;52.694;6.214;2023-02-15T04:54:45;0.70;99.90
57390;DHT22;43217;52.694;6.214;2023-02-15T04:57:10;0.70;99.90
57390;DHT22;43217;52.694;6.214;2023-02-15T04:59:36;0.70;99.90
57390;DHT22;43217;52.694;6.214;2023-02-15T05:02:02;0.70;99.90
57390;DHT22;43217;52.694;6.214;2023-02-15T05:04:28;0.70;99.90
57390;DHT22;43217;52.694;6.214;2023-02-15T05:06:53;0.60;99.90
57390;DHT22;43217;52.694;6.214;2023-02-15T05:09:19;0.70;99.90
57390;DHT22;43217;52.694;6.214;2023-02-15T05:11:45;0.60;99.90
57390;DHT22;43217;52.694;6.214;2023-02-15T05:14:10;0.60;99.90
57390;DHT22;43217;52.694;6.214;2023-02-15T05:16:36;0.70;99.90
57390;DHT22;43217;52.694;6.214;2023-02-15T05:19:02;0.70;99.90
57390;DHT22;43217;52.694;6.214;2023-02-15T05:21:27;0.70;99.90
57390;DHT22;43217;52.694;6.214;2023-02-15T05:23:53;0.70;99.90
57390;DHT22;43217;52.694;6.214;2023-02-15T05:26:22;0.70;99.90
57390;DHT22;43217;52.694;6.214;2023-02-15T05:29:08;0.70;99.90
57390;DHT22;43217;52.694;6.214;2023-02-15T05:31:35;0.70;99.90
57390;DHT22;43217;52.694;6.214;2023-02-15T05:34:01;0.70;99.90
57390;DHT22;43217;52.694;6.214;2023-02-15T05:36:26;0.70;99.90
57390;DHT22;43217;52.694;6.214;2023-02-15T05:38:53;0.70;99.90
57390;DHT22;43217;52.694;6.214;2023-02-15T05:41:19;0.70;99.90
57390;DHT22;43217;52.694;6.214;2023-02-15T05:43:44;0.70;99.90
57390;DHT22;43217;52.694;6.214;2023-02-15T05:46:10;0.70;99.90
57390;DHT22;43217;52.694;6.214;2023-02-15T05:48:37;0.70;99.90
57390;DHT22;43217;52.694;6.214;2023-02-15T05:51:08;0.70;99.90
57390;DHT22;43217;52.694;6.214;2023-02-15T05:53:37;0.70;99.90
57390;DHT22;43217;52.694;6.214;2023-02-15T05:56:03;0.70;99.90
57390;DHT22;43217;52.694;6.214;2023-02-15T05:58:32;0.70;99.90
57390;DHT22;43217;52.694;6.214;2023-02-15T06:00:58;0.70;99.90
57390;DHT22;43217;52.694;6.214;2023-02-15T06:03:24;0.60;99.90
57390;DHT22;43217;52.694;6.214;2023-02-15T06:05:51;0.60;99.90
57390;DHT22;43217;52.694;6.214;2023-02-15T06:08:17;0.60;99.90
57390;DHT22;43217;52.694;6.214;2023-02-15T06:10:45;0.50;99.90
57390;DHT22;43217;52.694;6.214;2023-02-15T06:13:11;0.50;99.90
57390;DHT22;43217;52.694;6.214;2023-02-15T06:15:36;0.50;99.90
57390;DHT22;43217;52.694;6.214;2023-02-15T06:18:02;0.50;99.90
57390;DHT22;43217;52.694;6.214;2023-02-15T06:20:28;0.50;99.90
57390;DHT22;43217;52.694;6.214;2023-02-15T06:22:53;0.50;99.90
57390;DHT22;43217;52.694;6.214;2023-02-15T06:25:19;0.50;99.90
57390;DHT22;43217;52.694;6.214;2023-02-15T06:27:45;0.50;99.90
57390;DHT22;43217;52.694;6.214;2023-02-15T06:30:11;0.40;99.90
57390;DHT22;43217;52.694;6.214;2023-02-15T06:32:37;0.40;99.90
57390;DHT22;43217;52.694;6.214;2023-02-15T06:35:03;0.40;99.90
57390;DHT22;43217;52.694;6.214;2023-02-15T06:37:28;0.40;99.90
57390;DHT22;43217;52.694;6.214;2023-02-15T06:39:54;0.50;99.90
57390;DHT22;43217;52.694;6.214;2023-02-15T06:42:21;0.50;99.90
57390;DHT22;43217;52.694;6.214;2023-02-15T06:44:47;0.60;99.90
57390;DHT22;43217;52.694;6.214;2023-02-15T06:47:12;0.70;99.90
57390;DHT22;43217;52.694;6.214;2023-02-15T06:49:38;0.70;99.90
57390;DHT22;43217;52.694;6.214;2023-02-15T06:52:04;0.70;99.90
57390;DHT22;43217;52.694;6.214;2023-02-15T06:54:30;0.80;99.90
57390;DHT22;43217;52.694;6.214;2023-02-15T06:56:56;0.80;99.90
57390;DHT22;43217;52.694;6.214;2023-02-15T06:59:21;0.80;99.90
57390;DHT22;43217;52.694;6.214;2023-02-15T07:01:47;0.80;99.90
57390;DHT22;43217;52.694;6.214;2023-02-15T07:04:14;0.80;99.90
57390;DHT22;43217;52.694;6.214;2023-02-15T07:06:40;0.80;99.90
57390;DHT22;43217;52.694;6.214;2023-02-15T07:09:05;0.90;99.90
57390;DHT22;43217;52.694;6.214;2023-02-15T07:11:31;0.80;99.90
57390;DHT22;43217;52.694;6.214;2023-02-15T07:14:15;0.80;99.90
57390;DHT22;43217;52.694;6.214;2023-02-15T07:16:41;0.90;99.90
57390;DHT22;43217;52.694;6.214;2023-02-15T07:19:07;0.90;99.90
57390;DHT22;43217;52.694;6.214;2023-02-15T07:21:33;0.90;99.90
57390;DHT22;43217;52.694;6.214;2023-02-15T07:23:59;1.00;99.90
57390;DHT22;43217;52.694;6.214;2023-02-15T07:26:25;1.10;99.90
57390;DHT22;43217;52.694;6.214;2023-02-15T07:28:51;1.10;99.90
57390;DHT22;43217;52.694;6.214;2023-02-15T07:31:16;1.10;99.90
57390;DHT22;43217;52.694;6.214;2023-02-15T07:33:42;1.20;99.90
57390;DHT22;43217;52.694;6.214;2023-02-15T07:36:08;1.20;99.90
57390;DHT22;43217;52.694;6.214;2023-02-15T07:38:39;1.30;99.90
57390;DHT22;43217;52.694;6.214;2023-02-15T07:41:06;1.30;99.90
57390;DHT22;43217;52.694;6.214;2023-02-15T07:43:37;1.30;99.90
57390;DHT22;43217;52.694;6.214;2023-02-15T07:46:05;1.40;99.90
57390;DHT22;43217;52.694;6.214;2023-02-15T07:48:33;1.40;99.90
57390;DHT22;43217;52.694;6.214;2023-02-15T07:51:00;1.50;99.90
57390;DHT22;43217;52.694;6.214;2023-02-15T07:53:26;1.60;99.90
57390;DHT22;43217;52.694;6.214;2023-02-15T07:55:52;1.60;99.90
57390;DHT22;43217;52.694;6.214;2023-02-15T07:58:18;1.70;99.90
57390;DHT22;43217;52.694;6.214;2023-02-15T08:00:44;1.80;99.90
57390;DHT22;43217;52.694;6.214;2023-02-15T08:03:25;1.80;99.90
57390;DHT22;43217;52.694;6.214;2023-02-15T08:05:56;1.80;99.90
57390;DHT22;43217;52.694;6.214;2023-02-15T08:08:22;1.90;99.90
57390;DHT22;43217;52.694;6.214;2023-02-15T08:11:01;1.90;99.90
57390;DHT22;43217;52.694;6.214;2023-02-15T08:13:46;2.00;99.90
57390;DHT22;43217;52.694;6.214;2023-02-15T08:16:32;2.00;99.90
57390;DHT22;43217;52.694;6.214;2023-02-15T08:19:21;2.10;99.90
57390;DHT22;43217;52.694;6.214;2023-02-15T08:21:53;2.10;99.90
57390;DHT22;43217;52.694;6.214;2023-02-15T08:24:21;2.10;99.90
57390;DHT22;43217;52.694;6.214;2023-02-15T08:26:47;2.10;99.90
57390;DHT22;43217;52.694;6.214;2023-02-15T08:29:22;2.20;99.90
57390;DHT22;43217;52.694;6.214;2023-02-15T08:31:48;2.30;99.90
57390;DHT22;43217;52.694;6.214;2023-02-15T08:34:17;2.30;99.90
57390;DHT22;43217;52.694;6.214;2023-02-15T08:36:44;2.30;99.90
57390;DHT22;43217;52.694;6.214;2023-02-15T08:39:14;2.30;99.90
57390;DHT22;43217;52.694;6.214;2023-02-15T08:41:44;2.40;99.90
57390;DHT22;43217;52.694;6.214;2023-02-15T08:44:11;2.50;99.90
57390;DHT22;43217;52.694;6.214;2023-02-15T08:46:40;2.50;99.90
57390;DHT22;43217;52.694;6.214;2023-02-15T08:49:07;2.60;99.90
57390;DHT22;43217;52.694;6.214;2023-02-15T08:51:34;2.60;99.90
57390;DHT22;43217;52.694;6.214;2023-02-15T08:54:03;2.60;99.90
57390;DHT22;43217;52.694;6.214;2023-02-15T08:56:34;2.70;99.90
57390;DHT22;43217;52.694;6.214;2023-02-15T08:59:01;2.80;99.90
57390;DHT22;43217;52.694;6.214;2023-02-15T09:01:29;2.80;99.90
57390;DHT22;43217;52.694;6.214;2023-02-15T09:03:58;2.80;99.90
57390;DHT22;43217;52.694;6.214;2023-02-15T09:06:24;2.90;99.90
57390;DHT22;43217;52.694;6.214;2023-02-15T09:08:50;2.90;99.90
57390;DHT22;43217;52.694;6.214;2023-02-15T09:11:21;3.00;99.90
57390;DHT22;43217;52.694;6.214;2023-02-15T09:13:59;3.00;99.90
57390;DHT22;43217;52.694;6.214;2023-02-15T09:16:26;3.10;99.90
57390;DHT22;43217;52.694;6.214;2023-02-15T09:18:53;3.20;99.90
57390;DHT22;43217;52.694;6.214;2023-02-15T09:21:21;3.20;99.90
57390;DHT22;43217;52.694;6.214;2023-02-15T09:23:49;3.30;99.90
57390;DHT22;43217;52.694;6.214;2023-02-15T09:26:20;3.40;99.90
57390;DHT22;43217;52.694;6.214;2023-02-15T09:28:48;3.50;99.90
57390;DHT22;43217;52.694;6.214;2023-02-15T09:31:21;3.60;99.90
57390;DHT22;43217;52.694;6.214;2023-02-15T09:33:48;3.70;99.90
57390;DHT22;43217;52.694;6.214;2023-02-15T09:36:17;3.90;99.90
57390;DHT22;43217;52.694;6.214;2023-02-15T09:38:43;3.90;99.90
57390;DHT22;43217;52.694;6.214;2023-02-15T09:41:16;4.10;99.90
57390;DHT22;43217;52.694;6.214;2023-02-15T10:07:04;5.10;99.90
57390;DHT22;43217;52.694;6.214;2023-02-15T10:10:15;5.30;99.90
57390;DHT22;43217;52.694;6.214;2023-02-15T10:26:19;5.90;99.90
57390;DHT22;43217;52.694;6.214;2023-02-15T10:34:26;6.20;99.90
57390;DHT22;43217;52.694;6.214;2023-02-15T10:37:29;6.40;99.90
57390;DHT22;43217;52.694;6.214;2023-02-15T10:45:49;6.60;99.90
57390;DHT22;43217;52.694;6.214;2023-02-15T10:48:34;6.70;99.90
57390;DHT22;43217;52.694;6.214;2023-02-15T10:51:10;6.90;99.90
57390;DHT22;43217;52.694;6.214;2023-02-15T11:01:38;7.20;99.90
57390;DHT22;43217;52.694;6.214;2023-02-15T11:07:06;7.40;99.90
57390;DHT22;43217;52.694;6.214;2023-02-15T11:09:51;7.40;99.90
57390;DHT22;43217;52.694;6.214;2023-02-15T11:12:22;7.50;99.90
57390;DHT22;43217;52.694;6.214;2023-02-15T11:17:21;7.70;99.90
57390;DHT22;43217;52.694;6.214;2023-02-15T11:22:16;7.90;99.90
57390;DHT22;43217;52.694;6.214;2023-02-15T11:24:45;8.00;99.90
57390;DHT22;43217;52.694;6.214;2023-02-15T11:29:41;8.10;99.90
57390;DHT22;43217;52.694;6.214;2023-02-15T11:32:37;8.10;99.90
57390;DHT22;43217;52.694;6.214;2023-02-15T11:37:50;8.30;99.90
57390;DHT22;43217;52.694;6.214;2023-02-15T11:41:15;8.40;99.90
57390;DHT22;43217;52.694;6.214;2023-02-15T11:45:53;8.50;99.90
57390;DHT22;43217;52.694;6.214;2023-02-15T11:48:20;8.50;99.90
57390;DHT22;43217;52.694;6.214;2023-02-15T11:50:45;8.50;99.90
57390;DHT22;43217;52.694;6.214;2023-02-15T11:53:16;8.50;99.90
57390;DHT22;43217;52.694;6.214;2023-02-15T11:55:43;8.60;99.90
57390;DHT22;43217;52.694;6.214;2023-02-15T12:00:48;8.70;99.90
57390;DHT22;43217;52.694;6.214;2023-02-15T12:03:27;8.80;99.90
57390;DHT22;43217;52.694;6.214;2023-02-15T12:06:00;8.90;99.90
57390;DHT22;43217;52.694;6.214;2023-02-15T12:08:40;8.90;99.90
57390;DHT22;43217;52.694;6.214;2023-02-15T12:11:10;9.00;99.90
57390;DHT22;43217;52.694;6.214;2023-02-15T12:13:54;9.00;99.90
57390;DHT22;43217;52.694;6.214;2023-02-15T12:16:20;9.00;99.90
57390;DHT22;43217;52.694;6.214;2023-02-15T12:18:47;9.10;99.90
57390;DHT22;43217;52.694;6.214;2023-02-15T12:21:28;9.00;99.90
57390;DHT22;43217;52.694;6.214;2023-02-15T12:24:19;9.10;99.90
57390;DHT22;43217;52.694;6.214;2023-02-15T12:26:42;9.10;99.90
57390;DHT22;43217;52.694;6.214;2023-02-15T12:29:16;9.20;99.90
57390;DHT22;43217;52.694;6.214;2023-02-15T12:31:45;9.20;99.90
57390;DHT22;43217;52.694;6.214;2023-02-15T12:34:23;9.30;99.90
57390;DHT22;43217;52.694;6.214;2023-02-15T12:36:56;9.30;99.90
57390;DHT22;43217;52.694;6.214;2023-02-15T12:39:29;9.30;99.90
57390;DHT22;43217;52.694;6.214;2023-02-15T12:44:26;9.30;99.90
57390;DHT22;43217;52.694;6.214;2023-02-15T12:49:33;9.30;99.90
57390;DHT22;43217;52.694;6.214;2023-02-15T12:52:02;9.40;99.90
57390;DHT22;43217;52.694;6.214;2023-02-15T12:56:57;9.40;99.90
57390;DHT22;43217;52.694;6.214;2023-02-15T12:59:24;9.50;99.90
57390;DHT22;43217;52.694;6.214;2023-02-15T13:01:51;9.50;99.90
57390;DHT22;43217;52.694;6.214;2023-02-15T13:04:25;9.50;99.90
57390;DHT22;43217;52.694;6.214;2023-02-15T13:06:53;9.50;99.90
57390;DHT22;43217;52.694;6.214;2023-02-15T13:09:37;9.50;99.90
57390;DHT22;43217;52.694;6.214;2023-02-15T13:12:24;9.50;99.90
57390;DHT22;43217;52.694;6.214;2023-02-15T13:14:52;9.60;99.90
57390;DHT22;43217;52.694;6.214;2023-02-15T13:17:29;9.60;99.90
57390;DHT22;43217;52.694;6.214;2023-02-15T13:20:26;9.70;99.90
57390;DHT22;43217;52.694;6.214;2023-02-15T13:22:58;9.70;99.90
57390;DHT22;43217;52.694;6.214;2023-02-15T13:25:27;9.80;99.90
57390;DHT22;43217;52.694;6.214;2023-02-15T13:28:03;9.80;99.90
57390;DHT22;43217;52.694;6.214;2023-02-15T13:30:44;9.80;99.90
57390;DHT22;43217;52.694;6.214;2023-02-15T13:33:22;9.90;99.90
57390;DHT22;43217;52.694;6.214;2023-02-15T13:38:45;10.00;99.90
57390;DHT22;43217;52.694;6.214;2023-02-15T13:41:16;10.10;99.90
57390;DHT22;43217;52.694;6.214;2023-02-15T13:43:57;10.10;99.90
57390;DHT22;43217;52.694;6.214;2023-02-15T13:52:21;10.30;99.90
57390;DHT22;43217;52.694;6.214;2023-02-15T14:00:49;10.50;99.90
57390;DHT22;43217;52.694;6.214;2023-02-15T14:09:15;10.40;99.90
57390;DHT22;43217;52.694;6.214;2023-02-15T14:19:44;10.20;99.90
57390;DHT22;43217;52.694;6.214;2023-02-15T14:30:41;10.20;99.90
57390;DHT22;43217;52.694;6.214;2023-02-15T14:33:19;10.20;99.90
57390;DHT22;43217;52.694;6.214;2023-02-15T14:35:47;10.20;99.90
57390;DHT22;43217;52.694;6.214;2023-02-15T14:41:11;10.20;99.90
57390;DHT22;43217;52.694;6.214;2023-02-15T14:49:12;10.10;99.90
57390;DHT22;43217;52.694;6.214;2023-02-15T14:59:42;10.10;99.90
57390;DHT22;43217;52.694;6.214;2023-02-15T15:09:42;10.00;99.90
57390;DHT22;43217;52.694;6.214;2023-02-15T15:14:47;10.00;99.90
57390;DHT22;43217;52.694;6.214;2023-02-15T15:20:13;10.00;99.90
57390;DHT22;43217;52.694;6.214;2023-02-15T15:22:41;10.00;99.90
57390;DHT22;43217;52.694;6.214;2023-02-15T15:27:59;10.00;99.90
57390;DHT22;43217;52.694;6.214;2023-02-15T15:35:36;9.90;99.90
57390;DHT22;43217;52.694;6.214;2023-02-15T15:49:24;9.50;99.90
57390;DHT22;43217;52.694;6.214;2023-02-15T15:51:52;9.50;99.90
57390;DHT22;43217;52.694;6.214;2023-02-15T15:54:23;9.40;99.90
57390;DHT22;43217;52.694;6.214;2023-02-15T15:56:59;9.40;99.90
57390;DHT22;43217;52.694;6.214;2023-02-15T15:59:33;9.30;99.90
57390;DHT22;43217;52.694;6.214;2023-02-15T16:02:09;9.30;99.90
57390;DHT22;43217;52.694;6.214;2023-02-15T16:04:36;9.30;99.90
57390;DHT22;43217;52.694;6.214;2023-02-15T16:09:56;9.20;99.90
57390;DHT22;43217;52.694;6.214;2023-02-15T16:12:23;9.20;99.90
57390;DHT22;43217;52.694;6.214;2023-02-15T16:14:49;9.10;99.90
57390;DHT22;43217;52.694;6.214;2023-02-15T16:17:23;9.10;99.90
57390;DHT22;43217;52.694;6.214;2023-02-15T16:19:49;9.00;99.90
57390;DHT22;43217;52.694;6.214;2023-02-15T16:22:21;9.00;99.90
57390;DHT22;43217;52.694;6.214;2023-02-15T16:27:42;8.90;99.90
57390;DHT22;43217;52.694;6.214;2023-02-15T16:30:27;8.80;99.90
57390;DHT22;43217;52.694;6.214;2023-02-15T16:32:57;8.70;99.90
57390;DHT22;43217;52.694;6.214;2023-02-15T16:35:27;8.70;99.90
57390;DHT22;43217;52.694;6.214;2023-02-15T16:37:53;8.70;99.90
57390;DHT22;43217;52.694;6.214;2023-02-15T16:40:26;8.60;99.90
57390;DHT22;43217;52.694;6.214;2023-02-15T16:43:00;8.60;99.90
57390;DHT22;43217;52.694;6.214;2023-02-15T16:45:26;8.60;99.90
57390;DHT22;43217;52.694;6.214;2023-02-15T16:47:56;8.60;99.90
57390;DHT22;43217;52.694;6.214;2023-02-15T16:50:34;8.60;99.90
57390;DHT22;43217;52.694;6.214;2023-02-15T16:53:01;8.60;99.90
57390;DHT22;43217;52.694;6.214;2023-02-15T16:55:30;8.50;99.90
57390;DHT22;43217;52.694;6.214;2023-02-15T16:58:04;8.50;99.90
57390;DHT22;43217;52.694;6.214;2023-02-15T17:00:34;8.50;99.90
57390;DHT22;43217;52.694;6.214;2023-02-15T17:03:24;8.40;99.90
57390;DHT22;43217;52.694;6.214;2023-02-15T17:05:56;8.50;99.90
57390;DHT22;43217;52.694;6.214;2023-02-15T17:08:29;8.40;99.90
57390;DHT22;43217;52.694;6.214;2023-02-15T17:13:25;8.20;99.90
57390;DHT22;43217;52.694;6.214;2023-02-15T17:18:32;8.00;99.90
57390;DHT22;43217;52.694;6.214;2023-02-15T17:21:08;7.90;99.90
57390;DHT22;43217;52.694;6.214;2023-02-15T17:23:43;7.80;99.90
57390;DHT22;43217;52.694;6.214;2023-02-15T17:28:50;7.60;99.90
57390;DHT22;43217;52.694;6.214;2023-02-15T17:31:18;7.60;99.90
57390;DHT22;43217;52.694;6.214;2023-02-15T17:33:44;7.50;99.90
57390;DHT22;43217;52.694;6.214;2023-02-15T17:38:37;7.40;99.90
57390;DHT22;43217;52.694;6.214;2023-02-15T17:41:03;7.40;99.90
57390;DHT22;43217;52.694;6.214;2023-02-15T17:43:29;7.40;99.90
57390;DHT22;43217;52.694;6.214;2023-02-15T17:45:54;7.40;99.90
57390;DHT22;43217;52.694;6.214;2023-02-15T17:48:31;7.40;99.90
57390;DHT22;43217;52.694;6.214;2023-02-15T17:51:00;7.30;99.90
57390;DHT22;43217;52.694;6.214;2023-02-15T17:53:27;7.30;99.90
57390;DHT22;43217;52.694;6.214;2023-02-15T17:55:52;7.20;99.90
57390;DHT22;43217;52.694;6.214;2023-02-15T17:58:19;7.20;99.90
57390;DHT22;43217;52.694;6.214;2023-02-15T18:00:56;7.10;99.90
57390;DHT22;43217;52.694;6.214;2023-02-15T18:03:46;7.10;99.90
57390;DHT22;43217;52.694;6.214;2023-02-15T18:06:32;7.00;99.90
57390;DHT22;43217;52.694;6.214;2023-02-15T18:09:18;7.00;99.90
57390;DHT22;43217;52.694;6.214;2023-02-15T18:12:23;6.90;99.90
57390;DHT22;43217;52.694;6.214;2023-02-15T18:14:50;6.90;99.90
57390;DHT22;43217;52.694;6.214;2023-02-15T18:17:17;6.80;99.90
57390;DHT22;43217;52.694;6.214;2023-02-15T18:19:44;6.70;99.90
57390;DHT22;43217;52.694;6.214;2023-02-15T18:22:12;6.70;99.90
57390;DHT22;43217;52.694;6.214;2023-02-15T18:24:38;6.70;99.90
57390;DHT22;43217;52.694;6.214;2023-02-15T18:27:05;6.70;99.90
57390;DHT22;43217;52.694;6.214;2023-02-15T18:29:30;6.60;99.90
57390;DHT22;43217;52.694;6.214;2023-02-15T18:31:57;6.70;99.90
57390;DHT22;43217;52.694;6.214;2023-02-15T18:34:25;6.60;99.90
57390;DHT22;43217;52.694;6.214;2023-02-15T18:36:52;6.60;99.90
57390;DHT22;43217;52.694;6.214;2023-02-15T18:41:49;6.40;99.90
57390;DHT22;43217;52.694;6.214;2023-02-15T18:44:14;6.30;99.90
57390;DHT22;43217;52.694;6.214;2023-02-15T18:46:40;6.20;99.90
57390;DHT22;43217;52.694;6.214;2023-02-15T18:49:05;6.20;99.90
57390;DHT22;43217;52.694;6.214;2023-02-15T18:51:31;6.20;99.90
57390;DHT22;43217;52.694;6.214;2023-02-15T18:54:00;6.20;99.90
57390;DHT22;43217;52.694;6.214;2023-02-15T18:56:26;6.20;99.90
57390;DHT22;43217;52.694;6.214;2023-02-15T18:58:52;6.20;99.90
57390;DHT22;43217;52.694;6.214;2023-02-15T19:01:20;6.20;99.90
57390;DHT22;43217;52.694;6.214;2023-02-15T19:03:50;6.20;99.90
57390;DHT22;43217;52.694;6.214;2023-02-15T19:06:18;6.20;99.90
57390;DHT22;43217;52.694;6.214;2023-02-15T19:08:46;6.20;99.90
57390;DHT22;43217;52.694;6.214;2023-02-15T19:11:20;6.10;99.90
57390;DHT22;43217;52.694;6.214;2023-02-15T19:13:48;6.10;99.90
57390;DHT22;43217;52.694;6.214;2023-02-15T19:16:34;6.10;99.90
57390;DHT22;43217;52.694;6.214;2023-02-15T19:19:00;6.10;99.90
57390;DHT22;43217;52.694;6.214;2023-02-15T19:21:29;6.00;99.90
57390;DHT22;43217;52.694;6.214;2023-02-15T19:24:07;6.00;99.90
57390;DHT22;43217;52.694;6.214;2023-02-15T19:26:37;6.00;99.90
57390;DHT22;43217;52.694;6.214;2023-02-15T19:29:05;6.00;99.90
57390;DHT22;43217;52.694;6.214;2023-02-15T19:31:30;5.90;99.90
57390;DHT22;43217;52.694;6.214;2023-02-15T19:33:56;5.90;99.90